createdAt,value
2022-12-14T00:01:59.652Z,19.50
2022-12-14T00:04:27.749Z,19.70
2022-12-14T00:06:57.185Z,19.10
2022-12-14T00:09:24.992Z,18.70
2022-12-14T00:11:52.856Z,18.70
2022-12-14T00:14:20.515Z,18.30
2022-12-14T00:16:48.586Z,18.90
2022-12-14T00:19:16.349Z,19.60
2022-12-14T00:21:43.992Z,18.10
2022-12-14T00:24:11.670Z,18.60
2022-12-14T00:26:39.340Z,18.10
2022-12-14T00:29:07.201Z,18.40
2022-12-14T00:31:36.336Z,17.60
2022-12-14T00:34:04.194Z,20.70
2022-12-14T00:36:44.176Z,20.90
2022-12-14T00:39:11.971Z,16.90
2022-12-14T00:41:39.628Z,19.30
2022-12-14T00:44:07.394Z,20.10
2022-12-14T00:46:35.111Z,20.40
2022-12-14T00:49:02.796Z,20.40
2022-12-14T00:51:30.460Z,19.80
2022-12-14T00:53:58.357Z,20.40
2022-12-14T00:56:25.938Z,18.80
2022-12-14T00:58:54.078Z,20.30
2022-12-14T01:01:22.276Z,21.20
2022-12-14T01:03:50.956Z,22.40
2022-12-14T01:06:20.541Z,21.20
2022-12-14T01:08:48.816Z,21.90
2022-12-14T01:11:16.477Z,22.30
2022-12-14T01:13:44.348Z,21.50
2022-12-14T01:16:13.567Z,22.70
2022-12-14T01:18:42.735Z,21.00
2022-12-14T01:21:13.370Z,20.10
2022-12-14T01:23:41.568Z,21.00
2022-12-14T01:26:09.332Z,20.50
2022-12-14T01:28:37.064Z,20.90
2022-12-14T01:31:08.374Z,20.70
2022-12-14T01:33:36.670Z,20.40
2022-12-14T01:36:08.578Z,19.90
2022-12-14T01:38:36.710Z,20.10
2022-12-14T01:41:05.494Z,20.80
2022-12-14T01:43:56.211Z,18.90
2022-12-14T01:46:26.875Z,18.50
2022-12-14T01:48:58.653Z,20.60
2022-12-14T01:51:27.157Z,19.60
2022-12-14T01:53:55.631Z,20.50
2022-12-14T01:56:23.653Z,19.20
2022-12-14T01:59:02.097Z,19.60
2022-12-14T02:01:29.922Z,18.20
2022-12-14T02:03:57.817Z,17.50
2022-12-14T02:06:28.944Z,17.70
2022-12-14T02:12:10.270Z,18.20
2022-12-14T02:14:38.806Z,17.30
2022-12-14T02:17:07.960Z,16.60
2022-12-14T02:19:36.500Z,18.80
2022-12-14T02:22:13.684Z,19.30
2022-12-14T02:24:53.293Z,19.10
2022-12-14T02:27:20.953Z,18.20
2022-12-14T02:29:53.351Z,18.80
2022-12-14T02:32:27.231Z,17.90
2022-12-14T02:34:58.070Z,17.70
2022-12-14T02:37:31.544Z,19.50
2022-12-14T02:40:12.262Z,20.10
2022-12-14T02:43:15.395Z,19.10
2022-12-14T02:45:50.664Z,18.30
2022-12-14T02:48:39.088Z,22.20
2022-12-14T02:51:06.759Z,19.70
2022-12-14T02:53:53.525Z,18.90
2022-12-14T02:56:25.769Z,20.30
2022-12-14T02:58:53.808Z,20.10
2022-12-14T03:01:23.329Z,19.00
2022-12-14T03:03:51.699Z,20.40
2022-12-14T03:06:27.078Z,21.40
2022-12-14T03:08:56.973Z,19.30
2022-12-14T03:11:35.021Z,18.60
2022-12-14T03:14:08.248Z,21.60
2022-12-14T03:16:46.567Z,21.00
2022-12-14T03:19:29.293Z,19.10
2022-12-14T03:21:58.981Z,18.50
2022-12-14T03:24:36.496Z,20.50
2022-12-14T03:27:15.698Z,19.60
2022-12-14T03:29:46.801Z,20.00
2022-12-14T03:32:16.668Z,18.60
2022-12-14T03:34:57.022Z,17.60
2022-12-14T03:37:30.210Z,19.10
2022-12-14T03:39:58.585Z,21.00
2022-12-14T03:42:32.268Z,19.50
2022-12-14T03:45:14.943Z,18.00
2022-12-14T03:47:46.243Z,18.90
2022-12-14T03:50:14.007Z,20.70
2022-12-14T03:52:44.404Z,17.70
2022-12-14T03:55:30.989Z,18.50
2022-12-14T04:00:26.817Z,18.80
2022-12-14T04:03:16.258Z,18.40
2022-12-14T04:05:49.079Z,18.90
2022-12-14T04:08:35.424Z,17.20
2022-12-14T04:11:23.767Z,16.70
2022-12-14T04:14:14.985Z,16.40
2022-12-14T04:17:03.674Z,18.30
2022-12-14T04:19:38.257Z,16.50
2022-12-14T04:22:08.375Z,17.10
2022-12-14T04:25:00.306Z,19.30
2022-12-14T04:27:39.954Z,17.70
2022-12-14T04:30:09.862Z,16.20
2022-12-14T04:32:39.380Z,17.60
2022-12-14T04:35:26.075Z,17.00
2022-12-14T04:40:31.514Z,16.70
2022-12-14T04:43:01.651Z,16.30
2022-12-14T04:45:55.668Z,17.20
2022-12-14T04:48:26.050Z,16.90
2022-12-14T04:51:01.142Z,15.40
2022-12-14T04:53:30.903Z,16.40
2022-12-14T04:56:22.116Z,16.20
2022-12-14T04:58:50.177Z,16.30
2022-12-14T05:01:36.906Z,12.50
2022-12-14T05:04:16.916Z,15.40
2022-12-14T05:06:50.438Z,16.70
2022-12-14T05:09:24.446Z,16.00
2022-12-14T05:12:10.845Z,15.80
2022-12-14T05:14:52.490Z,18.20
2022-12-14T05:17:20.475Z,16.70
2022-12-14T05:19:49.451Z,16.80
2022-12-14T05:22:18.427Z,17.40
2022-12-14T05:24:46.554Z,18.40
2022-12-14T05:27:14.169Z,17.10
2022-12-14T05:29:41.773Z,18.20
2022-12-14T05:32:11.507Z,17.00
2022-12-14T05:34:39.671Z,17.20
2022-12-14T05:37:09.574Z,18.20
2022-12-14T05:39:40.722Z,17.40
2022-12-14T05:42:08.349Z,18.10
2022-12-14T05:44:35.966Z,16.90
2022-12-14T05:47:04.003Z,18.30
2022-12-14T05:49:31.614Z,19.60
2022-12-14T05:51:59.239Z,18.10
2022-12-14T05:54:27.396Z,18.20
2022-12-14T05:56:55.464Z,19.10
2022-12-14T05:59:23.842Z,18.80
2022-12-14T06:01:51.695Z,18.30
2022-12-14T06:04:19.718Z,18.90
2022-12-14T06:06:47.652Z,17.20
2022-12-14T06:09:16.339Z,11.90
2022-12-14T06:11:44.637Z,19.30
2022-12-14T06:14:12.877Z,18.30
2022-12-14T06:16:41.867Z,22.10
2022-12-14T06:19:10.192Z,19.90
2022-12-14T06:21:38.827Z,20.00
2022-12-14T06:24:07.306Z,19.60
2022-12-14T06:26:42.092Z,20.10
2022-12-14T06:29:14.099Z,22.50
2022-12-14T06:31:42.356Z,19.40
2022-12-14T06:34:10.293Z,21.30
2022-12-14T06:36:39.846Z,21.00
2022-12-14T06:39:10.275Z,17.20
2022-12-14T06:41:38.443Z,21.50
2022-12-14T06:44:08.346Z,22.20
2022-12-14T06:46:36.815Z,22.10
2022-12-14T06:49:05.681Z,22.60
2022-12-14T06:51:38.569Z,25.00
2022-12-14T06:54:06.325Z,21.00
2022-12-14T06:56:34.432Z,22.60
2022-12-14T06:59:02.312Z,21.50
2022-12-14T07:01:30.721Z,22.00
2022-12-14T07:04:00.166Z,23.30
2022-12-14T07:06:28.987Z,22.50
2022-12-14T07:08:58.054Z,25.50
2022-12-14T07:11:26.712Z,23.40
2022-12-14T07:13:54.775Z,24.50
2022-12-14T07:16:23.976Z,24.80
2022-12-14T07:18:52.337Z,26.20
2022-12-14T07:21:20.896Z,24.70
2022-12-14T07:23:49.349Z,24.20
2022-12-14T07:26:24.351Z,23.80
2022-12-14T07:28:52.669Z,22.60
2022-12-14T07:31:24.762Z,22.80
2022-12-14T07:33:54.366Z,22.20
2022-12-14T07:36:23.435Z,22.90
2022-12-14T07:38:52.193Z,22.80
2022-12-14T07:41:25.037Z,23.70
2022-12-14T07:43:54.611Z,24.90
2022-12-14T07:46:24.023Z,24.80
2022-12-14T07:48:54.113Z,22.50
2022-12-14T07:51:23.514Z,24.00
2022-12-14T07:53:52.270Z,23.10
2022-12-14T07:56:22.237Z,22.70
2022-12-14T07:58:50.102Z,25.10
2022-12-14T08:01:19.373Z,23.90
2022-12-14T08:03:49.101Z,20.90
2022-12-14T08:06:18.298Z,22.60
2022-12-14T08:08:46.682Z,23.60
2022-12-14T08:11:14.856Z,23.20
2022-12-14T08:13:43.400Z,23.90
2022-12-14T08:16:12.372Z,25.70
2022-12-14T08:18:43.041Z,25.40
2022-12-14T08:21:11.638Z,26.00
2022-12-14T08:23:39.360Z,25.00
2022-12-14T08:26:07.573Z,22.60
2022-12-14T08:28:36.362Z,25.80
2022-12-14T08:31:06.070Z,28.20
2022-12-14T08:33:34.959Z,37.20
2022-12-14T08:36:10.410Z,26.60
2022-12-14T08:38:38.778Z,32.10
2022-12-14T08:41:08.077Z,28.10
2022-12-14T08:43:35.762Z,27.10
2022-12-14T08:46:03.946Z,31.60
2022-12-14T08:48:31.985Z,24.10
2022-12-14T08:51:04.147Z,25.60
2022-12-14T08:53:32.607Z,26.60
2022-12-14T08:56:04.982Z,26.60
2022-12-14T08:58:33.358Z,21.00
2022-12-14T09:01:03.909Z,30.30
2022-12-14T09:03:32.975Z,27.80
2022-12-14T09:06:01.843Z,29.40
2022-12-14T09:08:29.553Z,27.00
2022-12-14T09:10:57.260Z,25.20
2022-12-14T09:13:25.078Z,25.60
2022-12-14T09:15:56.921Z,27.60
2022-12-14T09:18:25.005Z,30.30
2022-12-14T09:20:56.057Z,30.40
2022-12-14T09:23:24.531Z,30.80
2022-12-14T09:26:18.879Z,31.30
2022-12-14T09:28:50.837Z,30.10
2022-12-14T09:31:19.857Z,29.50
2022-12-14T09:33:47.757Z,30.80
2022-12-14T09:36:20.078Z,31.00
2022-12-14T09:38:51.923Z,30.60
2022-12-14T09:41:40.206Z,27.80
2022-12-14T09:44:24.998Z,29.80
2022-12-14T09:47:02.170Z,28.60
2022-12-14T09:49:32.372Z,28.80
2022-12-14T09:52:03.701Z,27.00
2022-12-14T09:54:37.011Z,35.50
2022-12-14T09:57:11.732Z,30.10
2022-12-14T09:59:41.212Z,31.40
2022-12-14T10:02:30.735Z,28.90
2022-12-14T10:04:59.199Z,29.20
2022-12-14T10:07:34.589Z,29.70
2022-12-14T10:10:20.213Z,28.30
2022-12-14T10:12:54.869Z,28.50
2022-12-14T10:15:38.226Z,26.80
2022-12-14T10:18:57.462Z,26.50
2022-12-14T10:21:15.167Z,30.00
2022-12-14T10:23:51.328Z,29.20
2022-12-14T10:26:20.317Z,29.20
2022-12-14T10:29:01.196Z,29.20
2022-12-14T10:31:35.046Z,29.00
2022-12-14T10:34:12.496Z,27.80
2022-12-14T10:36:49.399Z,27.10
2022-12-14T10:39:21.908Z,28.40
2022-12-14T10:41:52.773Z,31.20
2022-12-14T10:44:38.558Z,29.10
2022-12-14T10:47:16.969Z,28.00
2022-12-14T10:49:52.852Z,24.60
2022-12-14T10:52:23.439Z,27.30
2022-12-14T10:54:54.390Z,27.70
2022-12-14T10:57:25.125Z,29.40
2022-12-14T11:00:07.994Z,26.60
2022-12-14T11:02:50.042Z,27.70
2022-12-14T11:05:18.312Z,26.40
2022-12-14T11:07:49.942Z,29.40
2022-12-14T11:10:22.895Z,28.80
2022-12-14T11:13:07.537Z,28.70
2022-12-14T11:15:35.487Z,27.90
2022-12-14T11:18:03.714Z,29.50
2022-12-14T11:20:32.538Z,27.80
2022-12-14T11:23:18.318Z,25.20
2022-12-14T11:25:48.036Z,27.80
2022-12-14T11:28:31.302Z,27.80
2022-12-14T11:31:06.450Z,27.20
2022-12-14T11:33:44.461Z,30.40
2022-12-14T11:36:23.853Z,27.30
2022-12-14T11:38:58.309Z,29.90
2022-12-14T11:41:30.805Z,26.50
2022-12-14T11:44:14.059Z,27.80
2022-12-14T11:46:47.342Z,28.40
2022-12-14T11:49:23.258Z,26.40
2022-12-14T11:51:58.941Z,28.90
2022-12-14T11:54:27.224Z,30.70
2022-12-14T11:57:00.417Z,27.30
2022-12-14T11:59:36.269Z,29.00
2022-12-14T12:02:09.075Z,27.70
2022-12-14T12:04:43.467Z,28.30
2022-12-14T12:07:22.908Z,30.20
2022-12-14T12:09:51.600Z,27.10
2022-12-14T12:12:20.560Z,28.40
2022-12-14T12:14:52.390Z,28.80
2022-12-14T12:17:21.946Z,30.80
2022-12-14T12:19:51.591Z,26.10
2022-12-14T12:22:20.444Z,26.00
2022-12-14T12:25:24.195Z,22.60
2022-12-14T12:27:47.917Z,26.90
2022-12-14T12:30:28.603Z,28.50
2022-12-14T12:33:00.440Z,26.90
2022-12-14T12:35:43.664Z,24.50
2022-12-14T12:38:18.312Z,27.00
2022-12-14T12:40:46.256Z,27.30
2022-12-14T12:43:29.289Z,28.50
2022-12-14T12:45:59.216Z,24.00
2022-12-14T12:48:30.064Z,26.30
2022-12-14T12:51:01.172Z,28.10
2022-12-14T12:53:30.674Z,25.30
2022-12-14T12:56:08.016Z,23.30
2022-12-14T13:01:12.695Z,26.00
2022-12-14T13:03:43.559Z,22.20
2022-12-14T13:06:23.380Z,27.20
2022-12-14T13:08:57.789Z,26.70
2022-12-14T13:11:35.397Z,27.20
2022-12-14T13:14:08.181Z,24.80
2022-12-14T13:16:37.873Z,26.50
2022-12-14T13:19:49.179Z,27.50
2022-12-14T13:22:15.609Z,29.40
2022-12-14T13:24:45.729Z,27.10
2022-12-14T13:27:17.464Z,27.40
2022-12-14T13:30:06.457Z,28.00
2022-12-14T13:32:46.236Z,29.20
2022-12-14T13:35:33.195Z,26.60
2022-12-14T13:40:47.978Z,27.80
2022-12-14T13:43:28.123Z,30.30
2022-12-14T13:45:56.219Z,27.50
2022-12-14T13:48:28.897Z,28.90
2022-12-14T13:51:03.360Z,27.60
2022-12-14T13:53:40.343Z,26.30
2022-12-14T13:56:09.161Z,26.40
2022-12-14T13:58:41.534Z,29.30
2022-12-14T14:01:14.420Z,28.20
2022-12-14T14:03:44.699Z,26.90
2022-12-14T14:06:12.735Z,24.80
2022-12-14T14:08:42.807Z,26.00
2022-12-14T14:11:39.383Z,25.10
2022-12-14T14:14:15.463Z,25.00
2022-12-14T14:16:44.946Z,25.60
2022-12-14T14:19:15.717Z,25.50
2022-12-14T14:25:01.905Z,25.10
2022-12-14T14:27:33.087Z,24.20
2022-12-14T14:30:02.133Z,27.10
2022-12-14T14:32:38.477Z,29.10
2022-12-14T14:35:26.918Z,29.40
2022-12-14T14:37:59.495Z,27.10
2022-12-14T14:40:51.301Z,27.60
2022-12-14T14:43:35.163Z,26.00
2022-12-14T14:46:04.705Z,26.90
2022-12-14T14:48:36.033Z,27.90
2022-12-14T14:51:16.374Z,26.90
2022-12-14T14:53:44.670Z,25.70
2022-12-14T14:56:32.027Z,25.80
2022-12-14T14:59:19.817Z,25.90
2022-12-14T15:02:00.790Z,25.40
2022-12-14T15:04:37.854Z,25.80
2022-12-14T15:07:08.797Z,25.70
2022-12-14T15:09:40.159Z,25.70
2022-12-14T15:12:20.058Z,25.50
2022-12-14T15:14:56.762Z,24.30
2022-12-14T15:17:25.550Z,23.60
2022-12-14T15:20:00.390Z,26.80
2022-12-14T15:22:30.593Z,25.90
2022-12-14T15:24:59.646Z,25.30
2022-12-14T15:27:37.954Z,24.70
2022-12-14T15:30:11.748Z,24.50
2022-12-14T15:32:47.410Z,23.90
2022-12-14T15:35:18.823Z,23.80
2022-12-14T15:37:56.477Z,23.70
2022-12-14T15:40:33.169Z,24.20
2022-12-14T15:43:02.388Z,23.20
2022-12-14T15:45:35.030Z,24.20
2022-12-14T15:48:13.557Z,24.80
2022-12-14T15:50:43.475Z,24.10
2022-12-14T15:53:34.784Z,24.10
2022-12-14T15:56:11.511Z,24.40
2022-12-14T15:58:41.012Z,24.00
2022-12-14T16:01:17.514Z,26.30
2022-12-14T16:03:47.442Z,28.20
2022-12-14T16:06:17.664Z,28.90
2022-12-14T16:08:55.262Z,28.10
2022-12-14T16:11:25.382Z,27.50
2022-12-14T16:13:53.834Z,25.40
2022-12-14T16:16:21.773Z,25.80
2022-12-14T16:18:51.227Z,28.20
2022-12-14T16:21:33.485Z,24.90
2022-12-14T16:24:13.590Z,28.30
2022-12-14T16:26:41.418Z,26.90
2022-12-14T16:29:19.356Z,24.70
2022-12-14T16:31:48.131Z,29.10
2022-12-14T16:34:19.394Z,26.30
2022-12-14T16:37:14.601Z,25.80
2022-12-14T16:39:38.833Z,26.20
2022-12-14T16:42:19.146Z,28.40
2022-12-14T16:44:48.921Z,26.80
2022-12-14T16:47:35.128Z,28.00
2022-12-14T16:50:40.082Z,26.30
2022-12-14T16:53:21.142Z,30.50
2022-12-14T16:56:15.510Z,30.40
2022-12-14T16:59:02.101Z,30.80
2022-12-14T17:01:43.699Z,29.30
2022-12-14T17:04:13.130Z,33.30
2022-12-14T17:06:46.220Z,31.60
2022-12-14T17:09:20.001Z,31.80
2022-12-14T17:11:49.107Z,31.10
2022-12-14T17:14:18.199Z,48.30
2022-12-14T17:16:47.332Z,34.70
2022-12-14T17:19:21.415Z,37.00
2022-12-14T17:21:51.449Z,65.60
2022-12-14T17:24:21.749Z,43.80
2022-12-14T17:26:50.958Z,38.40
2022-12-14T17:29:27.309Z,45.40
2022-12-14T17:31:57.525Z,37.60
2022-12-14T17:34:25.500Z,52.20
2022-12-14T17:36:53.461Z,42.40
2022-12-14T17:39:23.684Z,35.60
2022-12-14T17:41:52.170Z,29.00
2022-12-14T17:44:20.751Z,38.10
2022-12-14T17:46:52.296Z,29.40
2022-12-14T17:49:34.341Z,32.00
2022-12-14T17:52:04.335Z,29.40
2022-12-14T17:54:32.688Z,29.70
2022-12-14T17:57:00.962Z,29.60
2022-12-14T17:59:28.933Z,28.30
2022-12-14T18:01:57.037Z,29.50
2022-12-14T18:04:25.276Z,25.30
2022-12-14T18:06:52.964Z,27.00
2022-12-14T18:09:20.907Z,30.00
2022-12-14T18:12:21.375Z,28.10
2022-12-14T18:14:37.527Z,28.60
2022-12-14T18:17:11.065Z,27.00
2022-12-14T18:19:40.533Z,26.70
2022-12-14T18:22:08.596Z,25.70
2022-12-14T18:24:36.472Z,24.80
2022-12-14T18:27:05.453Z,26.10
2022-12-14T18:29:33.524Z,25.00
2022-12-14T18:32:01.504Z,25.40
2022-12-14T18:34:33.148Z,25.00
2022-12-14T18:37:01.019Z,25.80
2022-12-14T18:39:28.882Z,25.00
2022-12-14T18:41:56.847Z,25.00
2022-12-14T18:44:24.815Z,25.50
2022-12-14T18:46:52.861Z,27.50
2022-12-14T18:49:21.568Z,26.00
2022-12-14T18:51:49.537Z,25.20
2022-12-14T18:54:18.018Z,25.10
2022-12-14T18:56:45.890Z,23.40
2022-12-14T18:59:17.637Z,25.30
2022-12-14T19:01:45.509Z,23.20
2022-12-14T19:04:15.335Z,24.50
2022-12-14T19:06:44.950Z,25.20
2022-12-14T19:09:14.581Z,25.10
2022-12-14T19:11:42.814Z,24.90
2022-12-14T19:14:10.983Z,23.60
2022-12-14T19:16:39.434Z,22.80
2022-12-14T19:19:08.143Z,24.10
2022-12-14T19:21:36.114Z,23.10
2022-12-14T19:24:04.696Z,24.00
2022-12-14T19:26:33.382Z,26.00
2022-12-14T19:29:01.546Z,26.40
2022-12-14T19:31:30.501Z,27.10
2022-12-14T19:34:00.354Z,26.90
2022-12-14T19:36:28.828Z,24.00
2022-12-14T19:38:57.118Z,27.90
2022-12-14T19:41:25.283Z,28.30
2022-12-14T19:43:56.323Z,28.40
2022-12-14T19:46:25.054Z,27.70
2022-12-14T19:48:53.280Z,29.00
2022-12-14T19:51:22.883Z,28.60
2022-12-14T19:53:54.554Z,31.00
2022-12-14T19:56:22.714Z,32.00
2022-12-14T19:58:54.138Z,31.30
2022-12-14T20:01:24.710Z,29.90
2022-12-14T20:03:53.006Z,31.70
2022-12-14T20:06:20.934Z,29.20
2022-12-14T20:08:49.983Z,30.40
2022-12-14T20:11:17.892Z,32.20
2022-12-14T20:13:47.145Z,29.00
2022-12-14T20:16:18.509Z,28.90
2022-12-14T20:18:47.735Z,31.20
2022-12-14T20:21:21.586Z,33.60
2022-12-14T20:23:50.735Z,30.60
2022-12-14T20:26:20.649Z,28.00
2022-12-14T20:28:49.640Z,27.70
2022-12-14T20:31:18.001Z,27.10
2022-12-14T20:33:48.916Z,26.90
2022-12-14T20:36:19.687Z,28.00
2022-12-14T20:38:49.160Z,27.90
2022-12-14T20:41:17.882Z,27.50
2022-12-14T20:43:45.851Z,26.90
2022-12-14T20:46:40.197Z,26.20
2022-12-14T20:49:11.075Z,26.80
2022-12-14T20:51:39.444Z,27.50
2022-12-14T20:54:08.539Z,27.00
2022-12-14T20:56:36.615Z,27.10
2022-12-14T20:59:05.086Z,27.80
2022-12-14T21:01:33.633Z,27.60
2022-12-14T21:04:01.641Z,27.00
2022-12-14T21:06:31.814Z,26.60
2022-12-14T21:09:06.415Z,27.70
2022-12-14T21:11:54.731Z,27.50
2022-12-14T21:14:23.718Z,27.40
2022-12-14T21:16:51.958Z,26.50
2022-12-14T21:19:20.062Z,30.50
2022-12-14T21:21:53.276Z,31.50
2022-12-14T21:25:00.313Z,31.50
2022-12-14T21:27:15.111Z,28.70
2022-12-14T21:29:43.373Z,30.70
2022-12-14T21:32:11.517Z,33.10
2022-12-14T21:34:40.639Z,33.30
2022-12-14T21:37:09.018Z,31.80
2022-12-14T21:39:36.894Z,32.40
2022-12-14T21:42:13.086Z,33.30
2022-12-14T21:44:45.090Z,32.50
2022-12-14T21:47:14.665Z,32.70
2022-12-14T21:49:43.037Z,30.70
2022-12-14T21:52:15.466Z,32.40
2022-12-14T21:54:44.052Z,30.70
2022-12-14T21:57:35.087Z,29.00
2022-12-14T22:00:04.142Z,29.80
2022-12-14T22:02:32.146Z,31.30
2022-12-14T22:05:00.262Z,30.80
2022-12-14T22:07:32.353Z,31.80
2022-12-14T22:10:00.319Z,31.80
2022-12-14T22:12:28.298Z,35.20
2022-12-14T22:14:56.053Z,35.10
2022-12-14T22:17:24.604Z,34.70
2022-12-14T22:19:54.466Z,34.50
2022-12-14T22:22:22.920Z,32.90
2022-12-14T22:24:51.467Z,32.10
2022-12-14T22:27:20.083Z,31.80
2022-12-14T22:29:48.158Z,30.90
2022-12-14T22:32:16.391Z,31.90
2022-12-14T22:34:45.536Z,30.80
2022-12-14T22:37:15.166Z,34.30
2022-12-14T22:39:43.205Z,35.40
2022-12-14T22:42:11.105Z,32.70
2022-12-14T22:44:39.059Z,33.90
2022-12-14T22:47:07.006Z,33.60
2022-12-14T22:49:35.182Z,35.20
2022-12-14T22:52:03.151Z,34.10
2022-12-14T22:54:31.702Z,33.20
2022-12-14T22:57:04.309Z,35.10
2022-12-14T22:59:36.853Z,36.70
2022-12-14T23:02:05.055Z,36.70
2022-12-14T23:04:33.252Z,34.00
2022-12-14T23:07:01.709Z,34.10
2022-12-14T23:09:48.616Z,33.80
2022-12-14T23:12:35.638Z,32.50
2022-12-14T23:15:22.921Z,35.10
2022-12-14T23:18:12.831Z,34.70
2022-12-14T23:20:59.405Z,36.20
2022-12-14T23:23:46.249Z,35.00
2022-12-14T23:26:33.671Z,31.80
2022-12-14T23:29:20.505Z,35.10
2022-12-14T23:32:07.131Z,36.50
2022-12-14T23:34:53.788Z,32.60
2022-12-14T23:37:39.968Z,32.10
2022-12-14T23:40:26.483Z,33.60
2022-12-14T23:43:12.997Z,32.70
2022-12-14T23:46:01.527Z,35.90
2022-12-14T23:48:48.399Z,34.50
2022-12-14T23:51:34.823Z,37.70
2022-12-14T23:54:21.162Z,37.20
2022-12-14T23:57:07.908Z,35.50
2022-12-14T23:59:55.077Z,34.50
